createdAt,value
2022-12-23T00:01:40.984Z,12.05
2022-12-23T00:04:10.926Z,17.67
2022-12-23T00:06:38.620Z,9.82
2022-12-23T00:09:06.398Z,11.48
2022-12-23T00:11:34.055Z,10.65
2022-12-23T00:14:21.986Z,13.27
2022-12-23T00:16:50.355Z,14.70
2022-12-23T00:19:19.614Z,14.15
2022-12-23T00:21:48.539Z,11.60
2022-12-23T00:24:16.284Z,10.10
2022-12-23T00:26:44.150Z,10.88
2022-12-23T00:29:11.851Z,11.63
2022-12-23T00:31:39.551Z,13.48
2022-12-23T00:34:07.320Z,9.20
2022-12-23T00:36:38.432Z,12.95
2022-12-23T00:39:23.445Z,18.05
2022-12-23T00:42:08.628Z,13.77
2022-12-23T00:44:36.439Z,14.52
2022-12-23T00:47:04.119Z,10.98
2022-12-23T00:49:42.986Z,12.45
2022-12-23T00:52:13.803Z,6.78
2022-12-23T00:54:41.646Z,10.27
2022-12-23T00:57:09.316Z,9.45
2022-12-23T00:59:37.075Z,10.65
2022-12-23T01:02:22.364Z,9.55
2022-12-23T01:05:07.609Z,5.32
2022-12-23T01:07:36.671Z,4.82
2022-12-23T01:10:04.587Z,9.73
2022-12-23T01:12:32.246Z,9.75
2022-12-23T01:14:59.923Z,8.52
2022-12-23T01:17:27.635Z,7.55
2022-12-23T01:19:55.271Z,8.10
2022-12-23T01:22:23.097Z,12.63
2022-12-23T01:24:52.142Z,8.10
2022-12-23T01:27:19.794Z,10.60
2022-12-23T01:29:47.571Z,6.38
2022-12-23T01:32:15.296Z,11.35
2022-12-23T01:34:43.038Z,17.15
2022-12-23T01:37:10.739Z,8.55
2022-12-23T01:39:38.429Z,14.48
2022-12-23T01:42:28.358Z,12.93
2022-12-23T01:44:57.818Z,9.50
2022-12-23T01:47:28.628Z,16.75
2022-12-23T01:49:58.555Z,7.63
2022-12-23T01:52:26.590Z,12.18
2022-12-23T01:54:54.599Z,3.58
2022-12-23T01:57:23.840Z,5.07
2022-12-23T02:00:09.271Z,6.72
2022-12-23T02:02:55.275Z,5.97
2022-12-23T02:05:23.781Z,9.80
2022-12-23T02:08:09.191Z,15.07
2022-12-23T02:10:42.382Z,8.02
2022-12-23T02:13:15.267Z,11.30
2022-12-23T02:16:04.117Z,9.43
2022-12-23T02:18:35.642Z,10.40
2022-12-23T02:21:10.910Z,7.30
2022-12-23T02:23:53.667Z,7.30
2022-12-23T02:26:42.336Z,5.82
2022-12-23T02:29:23.934Z,6.30
2022-12-23T02:31:58.492Z,8.00
2022-12-23T02:34:31.201Z,12.13
2022-12-23T02:37:02.348Z,12.98
2022-12-23T02:39:33.882Z,9.30
2022-12-23T02:42:05.191Z,10.02
2022-12-23T02:44:34.687Z,16.17
2022-12-23T02:47:06.524Z,16.75
2022-12-23T02:49:35.394Z,8.13
2022-12-23T02:52:04.953Z,11.23
2022-12-23T02:54:34.940Z,12.18
2022-12-23T02:57:04.662Z,12.80
2022-12-23T02:59:35.527Z,14.25
2022-12-23T03:02:04.629Z,9.02
2022-12-23T03:04:32.397Z,7.40
2022-12-23T03:07:05.882Z,6.47
2022-12-23T03:09:38.414Z,9.35
2022-12-23T03:12:09.750Z,14.93
2022-12-23T03:14:52.544Z,7.97
2022-12-23T03:17:32.280Z,12.82
2022-12-23T03:20:04.515Z,9.38
2022-12-23T03:22:35.150Z,6.90
2022-12-23T03:25:04.590Z,8.27
2022-12-23T03:27:34.366Z,18.83
2022-12-23T03:30:03.253Z,17.92
2022-12-23T03:32:34.579Z,13.05
2022-12-23T03:35:03.603Z,8.85
2022-12-23T03:37:32.649Z,14.70
2022-12-23T03:40:02.828Z,8.02
2022-12-23T03:42:32.861Z,13.98
2022-12-23T03:47:53.563Z,14.40
2022-12-23T03:50:21.483Z,10.95
2022-12-23T03:52:51.988Z,16.50
2022-12-23T03:55:21.958Z,12.73
2022-12-23T03:57:53.212Z,12.30
2022-12-23T04:00:21.003Z,9.07
2022-12-23T04:02:54.758Z,18.02
2022-12-23T04:05:26.258Z,11.38
2022-12-23T04:07:55.703Z,16.60
2022-12-23T04:10:23.948Z,16.10
2022-12-23T04:12:51.629Z,7.32
2022-12-23T04:15:22.848Z,10.25
2022-12-23T04:17:50.911Z,13.02
2022-12-23T04:20:18.845Z,7.85
2022-12-23T04:22:48.065Z,11.77
2022-12-23T04:25:16.764Z,8.05
2022-12-23T04:27:44.478Z,11.35
2022-12-23T04:30:13.721Z,13.70
2022-12-23T04:32:41.467Z,9.65
2022-12-23T04:35:09.514Z,11.63
2022-12-23T04:37:37.549Z,12.60
2022-12-23T04:40:07.729Z,6.63
2022-12-23T04:42:35.795Z,9.10
2022-12-23T04:45:03.777Z,9.73
2022-12-23T04:47:31.427Z,9.65
2022-12-23T04:49:59.080Z,12.95
2022-12-23T04:52:26.741Z,6.47
2022-12-23T04:54:54.546Z,8.65
2022-12-23T04:57:23.611Z,11.10
2022-12-23T04:59:51.287Z,8.05
2022-12-23T05:02:19.016Z,11.18
2022-12-23T05:04:46.724Z,11.82
2022-12-23T05:07:14.560Z,8.05
2022-12-23T05:09:42.246Z,6.78
2022-12-23T05:12:09.895Z,7.65
2022-12-23T05:14:39.001Z,8.38
2022-12-23T05:17:07.930Z,10.25
2022-12-23T05:19:36.612Z,6.43
2022-12-23T05:22:04.403Z,6.78
2022-12-23T05:24:32.083Z,9.02
2022-12-23T05:27:00.661Z,8.23
2022-12-23T05:29:28.637Z,11.18
2022-12-23T05:31:57.727Z,5.63
2022-12-23T05:34:25.422Z,11.70
2022-12-23T05:36:53.249Z,14.48
2022-12-23T05:39:20.935Z,12.23
2022-12-23T05:41:48.651Z,11.10
2022-12-23T05:44:16.299Z,8.93
2022-12-23T05:46:44.055Z,13.05
2022-12-23T05:49:13.231Z,10.70
2022-12-23T05:51:40.891Z,5.57
2022-12-23T05:54:08.581Z,6.00
2022-12-23T05:56:36.384Z,5.88
2022-12-23T05:59:04.126Z,9.88
2022-12-23T06:01:32.091Z,7.30
2022-12-23T06:03:59.889Z,8.77
2022-12-23T06:06:29.235Z,7.43
2022-12-23T06:08:59.768Z,8.25
2022-12-23T06:11:28.270Z,9.93
2022-12-23T06:13:56.009Z,8.52
2022-12-23T06:16:24.149Z,9.82
2022-12-23T06:18:55.062Z,7.28
2022-12-23T06:21:22.746Z,5.70
2022-12-23T06:23:51.819Z,7.53
2022-12-23T06:26:19.500Z,9.38
2022-12-23T06:28:47.170Z,6.97
2022-12-23T06:31:14.886Z,5.68
2022-12-23T06:33:42.760Z,7.50
2022-12-23T06:36:10.662Z,14.20
2022-12-23T06:38:38.464Z,23.33
2022-12-23T06:41:07.751Z,22.60
2022-12-23T06:43:35.576Z,18.60
2022-12-23T06:46:03.334Z,24.88
2022-12-23T06:48:31.042Z,30.15
2022-12-23T06:50:58.857Z,25.48
2022-12-23T06:53:26.542Z,27.90
2022-12-23T06:56:00.378Z,32.30
2022-12-23T06:58:29.394Z,31.30
2022-12-23T07:00:57.173Z,25.88
2022-12-23T07:03:25.012Z,31.80
2022-12-23T07:05:52.941Z,33.55
2022-12-23T07:08:20.932Z,28.10
2022-12-23T07:10:50.077Z,26.10
2022-12-23T07:13:17.749Z,31.52
2022-12-23T07:15:46.779Z,20.98
2022-12-23T07:18:15.434Z,27.85
2022-12-23T07:20:43.358Z,26.52
2022-12-23T07:23:11.335Z,25.40
2022-12-23T07:25:38.997Z,22.88
2022-12-23T07:28:06.622Z,27.20
2022-12-23T07:30:34.350Z,23.00
2022-12-23T07:33:03.352Z,25.27
2022-12-23T07:35:31.155Z,21.23
2022-12-23T07:37:58.820Z,19.08
2022-12-23T07:40:27.296Z,16.05
2022-12-23T07:42:55.871Z,19.65
2022-12-23T07:45:23.511Z,17.85
2022-12-23T07:47:53.197Z,19.00
2022-12-23T07:50:22.221Z,17.50
2022-12-23T07:52:50.160Z,18.95
2022-12-23T07:55:17.917Z,18.17
2022-12-23T07:57:48.685Z,17.33
2022-12-23T08:00:16.597Z,9.48
2022-12-23T08:02:45.154Z,12.73
2022-12-23T08:05:13.230Z,14.77
2022-12-23T08:07:42.324Z,11.55
2022-12-23T08:10:10.665Z,9.43
2022-12-23T08:12:38.315Z,19.92
2022-12-23T08:15:06.587Z,8.48
2022-12-23T08:17:34.635Z,7.55
2022-12-23T08:20:02.749Z,6.47
2022-12-23T08:22:31.933Z,12.32
2022-12-23T08:25:01.007Z,11.77
2022-12-23T08:27:28.670Z,13.82
2022-12-23T08:29:56.453Z,13.70
2022-12-23T08:32:27.085Z,18.17
2022-12-23T08:34:56.385Z,14.40
2022-12-23T08:37:24.085Z,21.27
2022-12-23T08:39:51.797Z,10.77
2022-12-23T08:42:22.136Z,14.73
2022-12-23T08:44:49.780Z,11.80
2022-12-23T08:47:17.458Z,8.43
2022-12-23T08:49:45.212Z,13.35
2022-12-23T08:52:12.927Z,13.23
2022-12-23T08:54:40.603Z,12.52
2022-12-23T08:57:08.349Z,16.27
2022-12-23T08:59:37.357Z,11.18
2022-12-23T09:02:05.085Z,12.38
2022-12-23T09:04:32.909Z,13.15
2022-12-23T09:07:00.564Z,16.17
2022-12-23T09:09:28.225Z,13.65
2022-12-23T09:11:55.850Z,11.63
2022-12-23T09:14:23.516Z,13.40
2022-12-23T09:16:52.984Z,13.68
2022-12-23T09:19:20.641Z,14.65
2022-12-23T09:21:48.386Z,11.57
2022-12-23T09:24:16.019Z,13.23
2022-12-23T09:26:43.717Z,12.80
2022-12-23T09:29:11.391Z,13.05
2022-12-23T09:31:39.077Z,13.48
2022-12-23T09:34:08.152Z,11.30
2022-12-23T09:36:35.876Z,11.82
2022-12-23T09:39:03.900Z,17.27
2022-12-23T09:41:35.998Z,15.77
2022-12-23T09:44:14.886Z,12.32
2022-12-23T09:46:45.977Z,12.55
2022-12-23T09:49:16.715Z,16.25
2022-12-23T09:51:45.165Z,16.80
2022-12-23T09:54:17.525Z,17.15
2022-12-23T09:56:48.478Z,18.08
2022-12-23T09:59:21.193Z,18.30
2022-12-23T10:01:51.765Z,12.23
2022-12-23T10:04:45.118Z,10.93
2022-12-23T10:07:27.607Z,11.98
2022-12-23T10:09:55.975Z,12.48
2022-12-23T10:12:34.447Z,9.30
2022-12-23T10:15:08.594Z,18.13
2022-12-23T10:17:41.613Z,14.10
2022-12-23T10:20:18.252Z,15.60
2022-12-23T10:22:46.661Z,17.38
2022-12-23T10:25:15.863Z,16.65
2022-12-23T10:27:44.751Z,15.38
2022-12-23T10:30:42.565Z,12.02
2022-12-23T10:33:05.630Z,10.38
2022-12-23T10:35:47.174Z,11.88
2022-12-23T10:38:22.830Z,12.30
2022-12-23T10:40:52.483Z,8.38
2022-12-23T10:43:24.136Z,10.35
2022-12-23T10:45:58.927Z,9.85
2022-12-23T10:48:33.186Z,7.97
2022-12-23T10:51:04.377Z,12.85
2022-12-23T10:53:36.691Z,11.93
2022-12-23T10:56:05.545Z,8.88
2022-12-23T10:58:33.260Z,12.13
2022-12-23T11:01:09.931Z,9.40
2022-12-23T11:03:43.703Z,7.70
2022-12-23T11:06:13.819Z,8.10
2022-12-23T11:08:41.869Z,13.00
2022-12-23T11:11:09.549Z,10.77
2022-12-23T11:13:38.314Z,7.30
2022-12-23T11:16:30.198Z,6.95
2022-12-23T11:19:02.185Z,7.60
2022-12-23T11:21:31.856Z,5.38
2022-12-23T11:24:10.099Z,8.57
2022-12-23T11:26:38.058Z,8.40
2022-12-23T11:29:07.291Z,7.40
2022-12-23T11:31:36.725Z,8.00
2022-12-23T11:34:05.580Z,7.68
2022-12-23T11:36:35.381Z,9.93
2022-12-23T11:39:05.469Z,9.68
2022-12-23T11:41:36.191Z,9.13
2022-12-23T11:44:05.590Z,8.98
2022-12-23T11:46:34.111Z,6.18
2022-12-23T11:49:05.877Z,7.72
2022-12-23T11:51:34.967Z,6.75
2022-12-23T11:54:03.050Z,6.75
2022-12-23T11:56:35.598Z,7.32
2022-12-23T11:59:04.958Z,7.28
2022-12-23T12:01:33.211Z,6.28
2022-12-23T12:04:02.217Z,5.88
2022-12-23T12:06:30.553Z,7.07
2022-12-23T12:09:00.307Z,7.20
2022-12-23T12:11:30.235Z,5.53
2022-12-23T12:13:59.767Z,4.72
2022-12-23T12:16:34.616Z,4.45
2022-12-23T12:19:05.274Z,3.40
2022-12-23T12:21:34.469Z,4.35
2022-12-23T12:24:18.319Z,3.20
2022-12-23T12:26:51.016Z,4.15
2022-12-23T12:29:21.944Z,2.78
2022-12-23T12:31:50.582Z,4.63
2022-12-23T12:34:25.588Z,4.22
2022-12-23T12:36:56.994Z,2.63
2022-12-23T12:39:32.341Z,2.20
2022-12-23T12:44:38.792Z,2.35
2022-12-23T12:47:28.573Z,1.40
2022-12-23T12:50:00.820Z,1.90
2022-12-23T12:52:29.151Z,2.20
2022-12-23T12:55:00.460Z,1.33
2022-12-23T12:57:28.133Z,2.17
2022-12-23T13:00:05.203Z,4.13
2022-12-23T13:02:44.350Z,1.98
2022-12-23T13:05:28.763Z,2.33
2022-12-23T13:08:04.095Z,1.50
2022-12-23T13:13:06.460Z,1.27
2022-12-23T13:15:35.537Z,2.30
2022-12-23T13:18:16.992Z,2.08
2022-12-23T13:20:51.438Z,1.42
2022-12-23T13:23:42.944Z,1.80
2022-12-23T13:26:15.350Z,2.13
2022-12-23T13:28:48.963Z,1.00
2022-12-23T13:31:22.870Z,1.63
2022-12-23T13:33:56.065Z,2.45
2022-12-23T13:36:37.429Z,2.20
2022-12-23T13:39:12.607Z,2.13
2022-12-23T13:41:41.869Z,1.52
2022-12-23T13:44:13.607Z,2.15
2022-12-23T13:46:44.838Z,2.40
2022-12-23T13:49:15.433Z,4.97
2022-12-23T13:51:47.291Z,3.00
2022-12-23T13:54:21.008Z,2.90
2022-12-23T13:56:50.705Z,9.10
2022-12-23T13:59:19.886Z,3.15
2022-12-23T14:01:48.865Z,6.65
2022-12-23T14:04:33.922Z,6.20
2022-12-23T14:07:03.457Z,3.28
2022-12-23T14:09:33.306Z,8.63
2022-12-23T14:12:15.762Z,4.10
2022-12-23T14:15:04.175Z,3.85
2022-12-23T14:17:35.301Z,7.20
2022-12-23T14:20:09.220Z,6.00
2022-12-23T14:22:43.098Z,7.40
2022-12-23T14:25:26.865Z,8.00
2022-12-23T14:27:57.878Z,8.63
2022-12-23T14:30:34.122Z,3.45
2022-12-23T14:33:03.009Z,6.90
2022-12-23T14:35:45.532Z,10.00
2022-12-23T14:38:24.663Z,16.25
2022-12-23T14:40:58.618Z,11.77
2022-12-23T14:43:28.291Z,11.90
2022-12-23T14:45:58.089Z,5.22
2022-12-23T14:48:44.687Z,11.70
2022-12-23T14:51:22.716Z,6.78
2022-12-23T14:54:05.203Z,10.43
2022-12-23T14:56:42.016Z,8.70
2022-12-23T14:59:13.918Z,5.18
2022-12-23T15:01:43.646Z,11.90
2022-12-23T15:04:17.647Z,10.50
2022-12-23T15:06:46.359Z,13.02
2022-12-23T15:09:21.745Z,8.32
2022-12-23T15:11:49.444Z,11.57
2022-12-23T15:14:19.831Z,12.30
2022-12-23T15:16:48.908Z,19.33
2022-12-23T15:19:22.373Z,15.95
2022-12-23T15:22:00.327Z,14.55
2022-12-23T15:24:31.034Z,11.77
2022-12-23T15:27:25.443Z,15.63
2022-12-23T15:29:49.152Z,12.80
2022-12-23T15:32:18.452Z,5.22
2022-12-23T15:34:48.495Z,12.52
2022-12-23T15:37:18.392Z,15.93
2022-12-23T15:39:47.006Z,14.70
2022-12-23T15:42:24.408Z,10.50
2022-12-23T15:44:52.121Z,11.95
2022-12-23T15:47:30.230Z,16.08
2022-12-23T15:49:59.310Z,15.20
2022-12-23T15:52:27.714Z,13.57
2022-12-23T15:54:56.856Z,13.90
2022-12-23T15:57:27.105Z,13.15
2022-12-23T15:59:55.139Z,28.55
2022-12-23T16:05:23.761Z,12.80
2022-12-23T16:07:51.612Z,12.52
2022-12-23T16:10:22.538Z,14.75
2022-12-23T16:12:51.348Z,16.88
2022-12-23T16:15:23.516Z,19.30
2022-12-23T16:17:51.248Z,18.73
2022-12-23T16:20:25.462Z,16.00
2022-12-23T16:22:54.063Z,15.05
2022-12-23T16:25:24.795Z,21.83
2022-12-23T16:27:56.337Z,18.33
2022-12-23T16:30:25.457Z,28.08
2022-12-23T16:32:54.758Z,20.23
2022-12-23T16:35:28.117Z,12.65
2022-12-23T16:37:58.288Z,18.58
2022-12-23T16:40:25.994Z,11.77
2022-12-23T16:42:53.816Z,20.50
2022-12-23T16:45:22.331Z,19.80
2022-12-23T16:47:51.798Z,19.20
2022-12-23T16:50:19.460Z,16.10
2022-12-23T16:52:48.524Z,15.10
2022-12-23T16:55:16.664Z,11.68
2022-12-23T16:57:44.556Z,13.27
2022-12-23T17:00:16.042Z,13.55
2022-12-23T17:02:44.020Z,13.98
2022-12-23T17:05:15.715Z,22.83
2022-12-23T17:07:45.553Z,19.40
2022-12-23T17:10:15.628Z,14.80
2022-12-23T17:12:43.834Z,15.65
2022-12-23T17:15:17.029Z,15.70
2022-12-23T17:17:44.755Z,13.30
2022-12-23T17:20:12.762Z,13.77
2022-12-23T17:22:40.801Z,14.02
2022-12-23T17:25:10.970Z,17.20
2022-12-23T17:27:40.298Z,14.32
2022-12-23T17:30:11.241Z,15.80
2022-12-23T17:32:38.966Z,9.27
2022-12-23T17:35:06.813Z,15.50
2022-12-23T17:37:34.530Z,13.05
2022-12-23T17:40:02.315Z,19.38
2022-12-23T17:42:30.118Z,15.48
2022-12-23T17:44:59.191Z,13.77
2022-12-23T17:47:26.840Z,13.32
2022-12-23T17:49:54.528Z,17.02
2022-12-23T17:52:23.272Z,16.17
2022-12-23T17:54:52.105Z,22.23
2022-12-23T17:57:21.609Z,26.52
2022-12-23T17:59:49.847Z,18.08
2022-12-23T18:02:26.345Z,23.20
2022-12-23T18:04:54.509Z,9.98
2022-12-23T18:07:22.180Z,14.48
2022-12-23T18:09:50.840Z,21.45
2022-12-23T18:12:27.192Z,17.15
2022-12-23T18:14:54.966Z,18.77
2022-12-23T18:17:22.759Z,13.15
2022-12-23T18:19:51.867Z,15.43
2022-12-23T18:22:21.301Z,14.30
2022-12-23T18:24:53.819Z,19.45
2022-12-23T18:27:24.881Z,12.38
2022-12-23T18:29:52.890Z,21.35
2022-12-23T18:32:21.882Z,17.27
2022-12-23T18:34:50.955Z,15.82
2022-12-23T18:37:19.163Z,18.75
2022-12-23T18:39:46.849Z,20.70
2022-12-23T18:42:15.636Z,22.65
2022-12-23T18:44:43.877Z,13.40
2022-12-23T18:47:11.663Z,19.42
2022-12-23T18:49:39.474Z,14.45
2022-12-23T18:52:12.388Z,16.83
2022-12-23T18:54:40.079Z,15.10
2022-12-23T18:57:08.028Z,10.73
2022-12-23T18:59:37.702Z,11.38
2022-12-23T19:02:06.166Z,17.50
2022-12-23T19:04:34.506Z,10.45
2022-12-23T19:07:02.566Z,14.63
2022-12-23T19:09:31.651Z,16.77
2022-12-23T19:11:59.505Z,15.15
2022-12-23T19:14:27.516Z,17.58
2022-12-23T19:16:55.297Z,10.82
2022-12-23T19:19:23.197Z,11.63
2022-12-23T19:21:50.922Z,22.60
2022-12-23T19:24:18.740Z,9.82
2022-12-23T19:26:47.792Z,20.25
2022-12-23T19:29:16.202Z,15.90
2022-12-23T19:31:44.062Z,17.17
2022-12-23T19:34:15.478Z,12.70
2022-12-23T19:36:43.803Z,15.45
2022-12-23T19:39:16.672Z,18.98
2022-12-23T19:41:44.946Z,16.90
2022-12-23T19:44:14.011Z,17.10
2022-12-23T19:46:41.911Z,23.63
2022-12-23T19:49:14.082Z,13.60
2022-12-23T19:51:45.584Z,13.02
2022-12-23T19:54:13.358Z,21.83
2022-12-23T19:56:41.031Z,15.77
2022-12-23T19:59:08.804Z,14.65
2022-12-23T20:01:38.483Z,16.50
2022-12-23T20:04:07.236Z,15.10
2022-12-23T20:06:38.286Z,17.08
2022-12-23T20:09:06.557Z,16.38
2022-12-23T20:11:35.296Z,20.98
2022-12-23T20:14:03.051Z,13.30
2022-12-23T20:16:31.299Z,16.52
2022-12-23T20:19:00.348Z,18.42
2022-12-23T20:21:28.155Z,13.57
2022-12-23T20:23:55.950Z,17.27
2022-12-23T20:26:23.732Z,14.95
2022-12-23T20:28:51.723Z,14.25
2022-12-23T20:31:20.435Z,13.77
2022-12-23T20:33:48.262Z,16.13
2022-12-23T20:36:18.750Z,15.75
2022-12-23T20:38:46.853Z,21.42
2022-12-23T20:41:16.149Z,19.73
2022-12-23T20:43:48.874Z,13.75
2022-12-23T20:46:30.840Z,15.98
2022-12-23T20:48:58.550Z,17.38
2022-12-23T20:51:27.616Z,18.25
2022-12-23T20:53:56.097Z,22.35
2022-12-23T20:56:27.526Z,16.40
2022-12-23T20:59:02.735Z,24.90
2022-12-23T21:01:31.689Z,16.08
2022-12-23T21:04:00.369Z,26.30
2022-12-23T21:06:29.769Z,16.70
2022-12-23T21:08:59.551Z,21.50
2022-12-23T21:11:28.709Z,22.73
2022-12-23T21:14:01.135Z,18.50
2022-12-23T21:16:32.529Z,13.27
2022-12-23T21:19:00.593Z,22.52
2022-12-23T21:21:31.250Z,17.88
2022-12-23T21:24:01.100Z,26.42
2022-12-23T21:26:29.702Z,15.85
2022-12-23T21:28:59.283Z,24.65
2022-12-23T21:31:28.196Z,18.75
2022-12-23T21:33:56.211Z,19.58
2022-12-23T21:36:24.983Z,17.95
2022-12-23T21:38:54.337Z,19.92
2022-12-23T21:41:22.628Z,20.95
2022-12-23T21:43:50.580Z,28.02
2022-12-23T21:46:19.301Z,22.77
2022-12-23T21:48:48.839Z,23.40
2022-12-23T21:51:17.342Z,20.98
2022-12-23T21:53:45.808Z,22.75
2022-12-23T21:56:15.884Z,15.07
2022-12-23T21:58:43.784Z,17.63
2022-12-23T22:01:12.548Z,20.58
2022-12-23T22:03:40.568Z,21.60
2022-12-23T22:06:10.614Z,21.80
2022-12-23T22:08:38.880Z,15.88
2022-12-23T22:11:07.354Z,25.20
2022-12-23T22:13:36.407Z,14.00
2022-12-23T22:16:04.414Z,24.80
2022-12-23T22:18:32.351Z,18.58
2022-12-23T22:21:00.155Z,16.40
2022-12-23T22:23:27.788Z,24.17
2022-12-23T22:25:55.623Z,19.05
2022-12-23T22:28:24.174Z,17.17
2022-12-23T22:30:53.485Z,11.07
2022-12-23T22:33:21.515Z,22.42
2022-12-23T22:35:54.850Z,24.50
2022-12-23T22:38:22.556Z,28.20
2022-12-23T22:40:50.533Z,26.67
2022-12-23T22:43:18.348Z,24.88
2022-12-23T22:45:46.119Z,25.95
2022-12-23T22:48:15.603Z,18.25
2022-12-23T22:50:43.244Z,22.75
2022-12-23T22:53:11.927Z,16.48
2022-12-23T22:55:39.846Z,21.13
2022-12-23T22:58:07.654Z,22.25
2022-12-23T23:00:35.300Z,21.80
2022-12-23T23:03:03.020Z,19.00
2022-12-23T23:05:32.468Z,20.90
2022-12-23T23:08:00.160Z,12.48
2022-12-23T23:10:28.060Z,16.27
2022-12-23T23:12:55.947Z,16.00
2022-12-23T23:15:23.649Z,17.05
2022-12-23T23:17:51.442Z,10.93
2022-12-23T23:20:19.261Z,14.13
2022-12-23T23:22:48.563Z,26.83
2022-12-23T23:25:16.226Z,14.98
2022-12-23T23:27:43.943Z,21.88
2022-12-23T23:30:11.961Z,16.15
2022-12-23T23:32:39.749Z,24.55
2022-12-23T23:35:10.865Z,21.95
2022-12-23T23:37:38.863Z,26.77
2022-12-23T23:40:08.758Z,21.70
2022-12-23T23:42:36.462Z,16.42
2022-12-23T23:45:04.217Z,17.65
2022-12-23T23:47:34.536Z,12.13
2022-12-23T23:50:02.558Z,20.00
2022-12-23T23:52:30.240Z,26.55
2022-12-23T23:54:57.964Z,18.45
2022-12-23T23:57:26.990Z,16.77
2022-12-23T23:59:54.792Z,13.68
